Time;durP1;ratioP1;P1;durP2;ratioP2;P2;SDS_P1;SDS_P2;PMS_P1;PMS_P2;Temp;Humidity;BMP_temperature;BMP_pressure;BME280_temperature;BME280_humidity;BME280_pressure;Samples;Min_cycle;Max_cycle;Signal;HPM_P1;HPM_P2
2022/10/30 00:01:20;;;;;;;22.40;3.72;;;13.10;99.90;;;;;;4898006;29;20041;-93
2022/10/30 00:04:28;;;;;;;32.38;4.43;;;13.10;99.90;;;;;;4897347;29;20037;-95
2022/10/30 00:07:03;;;;;;;18.50;4.10;;;13.10;99.90;;;;;;4883482;29;20088;-93
2022/10/30 00:09:52;;;;;;;22.75;4.68;;;13.00;99.90;;;;;;4883336;29;20037;-94
2022/10/30 00:13:13;;;;;;;26.60;3.67;;;13.00;99.90;;;;;;4881942;29;20124;-95
2022/10/30 00:16:20;;;;;;;19.17;3.28;;;13.00;99.90;;;;;;4896834;29;20078;-94
2022/10/30 00:18:52;;;;;;;18.25;3.13;;;12.90;99.90;;;;;;4896764;29;20068;-93
2022/10/30 00:21:43;;;;;;;21.33;4.50;;;12.90;99.90;;;;;;4896699;29;20116;-95
2022/10/30 00:24:20;;;;;;;23.13;3.42;;;12.90;99.90;;;;;;4881010;29;20482;-93
2022/10/30 00:27:05;;;;;;;21.38;3.35;;;12.80;99.90;;;;;;4884038;29;20523;-94
2022/10/30 00:29:41;;;;;;;21.67;3.50;;;12.80;99.90;;;;;;4897615;29;20040;-93
2022/10/30 00:32:09;;;;;;;32.38;3.70;;;12.80;99.90;;;;;;4874354;29;20040;-94
2022/10/30 00:34:44;;;;;;;26.08;4.75;;;12.80;99.90;;;;;;4899985;29;20060;-93
2022/10/30 00:37:25;;;;;;;18.65;3.38;;;12.80;99.90;;;;;;4885203;29;20061;-95
2022/10/30 00:40:26;;;;;;;23.55;3.35;;;12.80;99.90;;;;;;4884956;29;20025;-93
2022/10/30 00:43:04;;;;;;;20.15;3.38;;;12.70;99.90;;;;;;4918103;29;20414;-95
2022/10/30 00:46:07;;;;;;;24.80;4.18;;;12.70;99.90;;;;;;4904111;29;20032;-95
2022/10/30 00:48:40;;;;;;;18.02;3.20;;;12.70;99.90;;;;;;4904363;29;20036;-95
2022/10/30 00:51:15;;;;;;;24.23;3.70;;;12.60;99.90;;;;;;4904370;29;20033;-94
2022/10/30 00:53:46;;;;;;;22.45;3.60;;;12.60;99.90;;;;;;4928378;29;20056;-94
2022/10/30 00:56:32;;;;;;;20.90;4.13;;;12.60;99.90;;;;;;4940405;29;20023;-94
2022/10/30 00:59:33;;;;;;;37.65;3.97;;;12.60;99.90;;;;;;4922209;29;20490;-96
2022/10/30 01:02:03;;;;;;;19.15;3.38;;;12.60;99.90;;;;;;4941759;29;20515;-93
2022/10/30 01:04:44;;;;;;;21.25;3.47;;;12.50;99.90;;;;;;4938618;29;20118;-95
2022/10/30 01:07:26;;;;;;;23.77;4.30;;;12.50;99.90;;;;;;4939696;29;20035;-94
2022/10/30 01:16:22;;;;;;;;;;;12.50;99.90;;;;;;4915061;29;20417;-95
2022/10/30 01:19:25;;;;;;;23.95;3.70;;;12.50;99.90;;;;;;4918038;29;19929;-95
2022/10/30 01:25:47;;;;;;;28.50;3.40;;;12.50;99.90;;;;;;4919008;29;20028;-95
2022/10/30 01:28:34;;;;;;;32.25;3.72;;;12.50;99.90;;;;;;4903118;29;20123;-93
2022/10/30 01:31:27;;;;;;;26.02;3.58;;;12.50;99.90;;;;;;4919265;29;20067;-94
2022/10/30 01:34:40;;;;;;;23.98;3.22;;;12.50;99.90;;;;;;4919000;29;20593;-94
2022/10/30 01:37:35;;;;;;;20.08;3.67;;;12.50;99.90;;;;;;4918943;29;20032;-94
2022/10/30 01:40:25;;;;;;;26.60;3.85;;;12.50;99.90;;;;;;4915826;29;20118;-94
2022/10/30 01:43:41;;;;;;;;;;;12.40;99.90;;;;;;4912977;29;20059;-94
2022/10/30 01:47:12;;;;;;;22.65;4.15;;;12.40;99.90;;;;;;4910219;29;19911;-94
2022/10/30 01:50:16;;;;;;;25.45;3.70;;;12.40;99.90;;;;;;4916226;29;20032;-94
2022/10/30 01:52:59;;;;;;;30.60;3.78;;;12.40;99.90;;;;;;4883969;29;20036;-94
2022/10/30 01:56:03;;;;;;;17.80;3.28;;;12.30;99.90;;;;;;4896609;29;20056;-94
2022/10/30 01:59:50;;;;;;;15.63;3.53;;;12.30;99.90;;;;;;4917445;29;20110;-93
2022/10/30 02:02:21;;;;;;;15.80;2.88;;;12.30;99.90;;;;;;4938110;29;20118;-93
2022/10/30 02:04:55;;;;;;;31.80;3.35;;;12.20;99.90;;;;;;4928509;29;20134;-94
2022/10/30 02:07:48;;;;;;;17.25;3.38;;;12.20;99.90;;;;;;4938834;29;20478;-93
2022/10/30 02:11:11;;;;;;;23.75;3.78;;;12.20;99.90;;;;;;4961982;29;20094;-93
2022/10/30 02:14:13;;;;;;;33.95;4.53;;;12.20;99.90;;;;;;4941087;29;20446;-96
2022/10/30 02:17:00;;;;;;;21.67;3.33;;;12.20;99.90;;;;;;4938642;29;20039;-96
2022/10/30 02:21:01;;;;;;;22.58;3.35;;;12.30;99.90;;;;;;4938272;29;20036;-94
2022/10/30 02:23:46;;;;;;;24.10;2.95;;;12.30;99.90;;;;;;4904800;29;20130;-94
2022/10/30 02:26:59;;;;;;;21.35;3.33;;;12.30;99.90;;;;;;4938250;29;20035;-93
2022/10/30 02:30:09;;;;;;;19.48;2.92;;;12.30;99.90;;;;;;4951001;28;20032;-96
2022/10/30 02:32:58;;;;;;;14.25;2.67;;;12.30;99.90;;;;;;4954061;28;20073;-95
2022/10/30 02:36:19;;;;;;;24.05;3.53;;;12.30;99.90;;;;;;4920532;29;20071;-94
2022/10/30 02:39:16;;;;;;;27.83;3.95;;;12.30;99.90;;;;;;4939023;29;20040;-93
2022/10/30 02:42:30;;;;;;;23.88;3.20;;;12.40;99.90;;;;;;4937950;29;20038;-94
2022/10/30 02:45:04;;;;;;;20.07;4.70;;;12.40;99.90;;;;;;4930700;29;20478;-95
2022/10/30 02:47:48;;;;;;;26.52;3.00;;;12.40;99.90;;;;;;4937484;29;20031;-95
2022/10/30 02:50:30;;;;;;;24.08;3.40;;;12.40;99.90;;;;;;4936023;29;20044;-94
2022/10/30 02:53:30;;;;;;;26.52;3.42;;;12.40;99.90;;;;;;4937686;29;20115;-94
2022/10/30 02:56:08;;;;;;;20.08;2.53;;;12.40;99.90;;;;;;4921877;29;20118;-95
2022/10/30 02:58:52;;;;;;;21.15;3.90;;;12.40;99.90;;;;;;4936887;29;20061;-94
2022/10/30 03:01:40;;;;;;;24.50;2.60;;;12.40;99.90;;;;;;4939125;29;20123;-94
2022/10/30 03:04:31;;;;;;;25.33;2.70;;;12.40;99.90;;;;;;4937317;29;20458;-95
2022/10/30 03:07:06;;;;;;;17.88;2.60;;;12.40;99.90;;;;;;4951807;29;20204;-95
2022/10/30 03:10:11;;;;;;;22.42;3.55;;;12.50;99.90;;;;;;4938208;29;20107;-95
2022/10/30 03:12:36;;;;;;;25.08;3.00;;;12.50;99.90;;;;;;4920217;29;20028;-94
2022/10/30 03:15:14;;;;;;;24.60;3.25;;;12.50;99.90;;;;;;4940564;29;20034;-95
2022/10/30 03:17:51;;;;;;;19.85;2.22;;;12.50;99.90;;;;;;4916949;29;20046;-95
2022/10/30 03:20:45;;;;;;;24.88;3.17;;;12.50;99.90;;;;;;4907151;29;20482;-94
2022/10/30 03:23:52;;;;;;;34.45;2.78;;;12.50;99.90;;;;;;4917349;29;20044;-94
2022/10/30 03:29:55;;;;;;;23.38;3.20;;;12.50;99.90;;;;;;4907834;29;20137;-95
2022/10/30 03:32:43;;;;;;;30.40;2.67;;;12.50;99.90;;;;;;4919354;29;20040;-95
2022/10/30 03:35:12;;;;;;;20.30;2.47;;;12.60;99.90;;;;;;4904727;29;20043;-96
2022/10/30 03:38:09;;;;;;;19.55;3.25;;;12.60;99.90;;;;;;4918275;29;20051;-95
2022/10/30 03:41:14;;;;;;;29.70;4.70;;;12.60;99.90;;;;;;4916859;29;20034;-95
2022/10/30 03:44:12;;;;;;;24.73;3.70;;;12.60;99.90;;;;;;4921621;29;20036;-94
2022/10/30 03:47:38;;;;;;;29.42;3.30;;;12.60;99.90;;;;;;4918095;29;20036;-96
2022/10/30 03:50:10;;;;;;;20.13;2.58;;;12.60;99.90;;;;;;4930812;29;20039;-95
2022/10/30 03:52:44;;;;;;;24.80;2.85;;;12.60;99.90;;;;;;4952274;29;20621;-95
2022/10/30 03:56:00;;;;;;;23.15;2.83;;;12.60;99.90;;;;;;4920927;29;20123;-95
2022/10/30 03:58:59;;;;;;;28.48;3.53;;;12.60;99.90;;;;;;4932117;29;20036;-93
2022/10/30 04:01:30;;;;;;;24.08;3.35;;;12.60;99.90;;;;;;4933579;29;20058;-95
2022/10/30 04:04:28;;;;;;;25.10;3.35;;;12.60;99.90;;;;;;4932502;29;20032;-95
2022/10/30 04:07:10;;;;;;;29.67;3.20;;;12.50;99.90;;;;;;4918994;29;20461;-94
2022/10/30 04:10:00;;;;;;;21.58;3.10;;;12.50;99.90;;;;;;4917503;29;20055;-93
2022/10/30 04:12:38;;;;;;;20.20;2.55;;;12.50;99.90;;;;;;4915171;29;20040;-93
2022/10/30 04:15:11;;;;;;;28.95;2.85;;;12.50;99.90;;;;;;4918532;29;20040;-94
2022/10/30 04:17:53;;;;;;;24.35;3.28;;;12.50;99.90;;;;;;4902889;29;20032;-94
2022/10/30 04:20:28;;;;;;;25.95;3.97;;;12.50;99.90;;;;;;4909816;29;20044;-96
2022/10/30 04:26:59;;;;;;;26.30;3.08;;;12.50;99.90;;;;;;4883026;29;20077;-94
2022/10/30 04:29:28;;;;;;;24.10;3.55;;;12.50;99.90;;;;;;4897688;29;20056;-94
2022/10/30 04:32:02;;;;;;;25.35;2.80;;;12.50;99.90;;;;;;4881231;29;20054;-96
2022/10/30 04:34:34;;;;;;;19.83;2.90;;;12.50;99.90;;;;;;4881266;29;20025;-93
2022/10/30 04:37:22;;;;;;;20.60;2.65;;;12.50;99.90;;;;;;4896641;29;20055;-92
2022/10/30 04:43:27;;;;;;;18.60;2.67;;;12.50;99.90;;;;;;4880184;29;20070;-95
2022/10/30 04:46:21;;;;;;;19.30;3.05;;;12.50;99.90;;;;;;4879072;29;20048;-94
2022/10/30 04:49:00;;;;;;;22.23;3.80;;;12.50;99.90;;;;;;4883629;29;20033;-95
2022/10/30 04:51:48;;;;;;;19.50;2.67;;;12.40;99.90;;;;;;4882216;29;20033;-96
2022/10/30 04:54:19;;;;;;;21.88;2.78;;;12.50;99.90;;;;;;4904895;29;20462;-93
2022/10/30 04:56:49;;;;;;;24.25;2.90;;;12.50;99.90;;;;;;4883424;29;20048;-94
2022/10/30 05:00:09;;;;;;;22.15;3.10;;;12.40;99.90;;;;;;4878291;29;20139;-95
2022/10/30 05:03:21;;;;;;;29.13;3.83;;;12.40;99.90;;;;;;4860039;29;20106;-94
2022/10/30 05:06:29;;;;;;;23.75;2.78;;;12.40;99.90;;;;;;4885180;29;20040;-93
2022/10/30 05:09:27;;;;;;;21.88;4.25;;;12.40;99.90;;;;;;4897577;29;20045;-94
2022/10/30 05:15:20;;;;;;;16.17;2.70;;;12.40;99.90;;;;;;5505757;23;20069;-92
2022/10/30 05:18:14;;;;;;;19.08;2.42;;;12.40;99.90;;;;;;5009438;28;20073;-95
2022/10/30 05:20:57;;;;;;;14.88;3.08;;;12.40;99.90;;;;;;5006426;28;20041;-95
2022/10/30 05:23:59;;;;;;;;;;;12.40;99.90;;;;;;5013379;28;20085;-94
2022/10/30 05:26:26;;;;;;;22.88;3.45;;;12.40;99.90;;;;;;4987714;28;19906;-94
2022/10/30 05:28:54;;;;;;;21.88;3.05;;;12.40;99.90;;;;;;4980481;28;20129;-96
2022/10/30 05:31:26;;;;;;;17.60;2.38;;;12.30;99.90;;;;;;5001344;28;20157;-96
2022/10/30 05:34:04;;;;;;;19.35;3.38;;;12.30;99.90;;;;;;4974294;28;20117;-94
2022/10/30 05:36:44;;;;;;;17.08;3.47;;;12.30;99.90;;;;;;4980291;28;20054;-96
2022/10/30 05:39:11;;;;;;;22.95;3.33;;;12.20;99.90;;;;;;4981408;28;20049;-95
2022/10/30 05:41:39;;;;;;;18.33;2.63;;;12.20;99.90;;;;;;4998573;28;20030;-95
2022/10/30 05:44:19;;;;;;;18.73;3.90;;;12.20;99.90;;;;;;4980311;28;20057;-94
2022/10/30 05:46:45;;;;;;;17.67;2.20;;;12.20;99.90;;;;;;4959634;28;20077;-94
2022/10/30 05:49:26;;;;;;;20.27;2.45;;;12.20;99.90;;;;;;4979593;28;20058;-93
2022/10/30 05:51:58;;;;;;;;;;;12.20;99.90;;;;;;4980114;28;20034;-94
2022/10/30 05:54:49;;;;;;;14.13;2.00;;;12.10;99.90;;;;;;4996323;28;19906;-94
2022/10/30 05:57:23;;;;;;;20.80;3.20;;;12.10;99.90;;;;;;4978075;28;20050;-95
2022/10/30 06:00:28;;;;;;;15.27;2.40;;;12.10;99.90;;;;;;4997682;28;20027;-95
2022/10/30 06:03:11;;;;;;;21.50;2.30;;;12.20;99.90;;;;;;4967582;28;20092;-96
2022/10/30 06:05:39;;;;;;;13.57;2.20;;;12.20;99.90;;;;;;4980833;28;20019;-96
2022/10/30 06:08:27;;;;;;;15.48;2.20;;;12.20;99.90;;;;;;4986080;28;20100;-95
2022/10/30 06:11:07;;;;;;;21.23;2.58;;;12.20;99.90;;;;;;4981674;28;20042;-96
2022/10/30 06:14:02;;;;;;;27.75;2.50;;;12.20;99.90;;;;;;4980076;28;20061;-94
2022/10/30 06:16:53;;;;;;;23.98;2.50;;;12.20;99.90;;;;;;4980851;28;20484;-96
2022/10/30 06:19:27;;;;;;;23.40;2.92;;;12.20;99.90;;;;;;4954228;28;20046;-95
2022/10/30 06:22:22;;;;;;;28.42;2.90;;;12.20;99.90;;;;;;4982947;28;20034;-96
2022/10/30 06:25:14;;;;;;;21.25;3.33;;;12.20;99.90;;;;;;4999277;28;20030;-93
2022/10/30 06:27:49;;;;;;;22.17;3.05;;;12.20;99.90;;;;;;4958202;28;20028;-94
2022/10/30 06:30:39;;;;;;;29.25;3.00;;;12.20;99.90;;;;;;4958647;29;20054;-96
2022/10/30 06:33:29;;;;;;;28.00;3.63;;;12.20;99.90;;;;;;4926086;28;20045;-96
2022/10/30 06:36:13;;;;;;;23.90;2.47;;;12.20;99.90;;;;;;4978388;28;20035;-95
2022/10/30 06:39:31;;;;;;;23.98;3.05;;;12.20;99.90;;;;;;4967676;28;20046;-95
2022/10/30 06:42:06;;;;;;;25.52;3.67;;;12.20;99.90;;;;;;4957567;28;20077;-95
2022/10/30 06:45:02;;;;;;;20.60;2.63;;;12.30;99.90;;;;;;4979415;28;20443;-95
2022/10/30 06:47:47;;;;;;;17.55;2.10;;;12.30;99.90;;;;;;4954893;29;20039;-94
2022/10/30 06:50:50;;;;;;;21.20;2.60;;;12.30;99.90;;;;;;4957709;28;20031;-96
2022/10/30 06:53:42;;;;;;;20.35;2.60;;;12.30;99.90;;;;;;4938469;29;20102;-94
2022/10/30 06:56:09;;;;;;;22.40;3.10;;;12.30;99.90;;;;;;4937189;29;20054;-95
2022/10/30 06:58:39;;;;;;;22.13;3.13;;;12.30;99.90;;;;;;4948173;28;20070;-96
2022/10/30 07:01:14;;;;;;;21.48;3.20;;;12.30;99.90;;;;;;4974310;28;20034;-95
2022/10/30 07:03:55;;;;;;;17.95;3.28;;;12.30;99.90;;;;;;4958214;28;20061;-95
2022/10/30 07:06:35;;;;;;;;;;;12.30;99.90;;;;;;4958577;28;20030;-95
2022/10/30 07:09:11;;;;;;;12.02;2.15;;;12.30;99.90;;;;;;4974755;28;19906;-95
2022/10/30 07:11:45;;;;;;;16.17;2.30;;;12.30;99.90;;;;;;4956112;28;20043;-94
2022/10/30 07:14:16;;;;;;;27.05;3.78;;;12.30;99.90;;;;;;4969561;28;20038;-96
2022/10/30 07:16:45;;;;;;;21.50;2.72;;;12.30;99.90;;;;;;4973786;28;20166;-93
2022/10/30 07:19:25;;;;;;;23.02;4.32;;;12.30;99.90;;;;;;4974161;28;20043;-93
2022/10/30 07:21:53;;;;;;;;;;;12.30;99.90;;;;;;4974825;28;20047;-94
2022/10/30 07:24:18;;;;;;;25.42;4.45;;;12.30;99.90;;;;;;4973844;28;19909;-93
2022/10/30 07:26:53;;;;;;;16.60;2.63;;;12.30;99.90;;;;;;4967455;28;20397;-92
2022/10/30 07:29:25;;;;;;;21.63;2.70;;;12.30;99.90;;;;;;4990114;28;20476;-93
2022/10/30 07:31:52;;;;;;;18.33;3.28;;;12.30;99.90;;;;;;4964589;28;20031;-94
2022/10/30 07:34:57;;;;;;;22.65;3.03;;;12.20;99.90;;;;;;4965698;28;20616;-95
2022/10/30 07:37:47;;;;;;;23.55;2.58;;;12.20;99.90;;;;;;4976984;28;20489;-94
2022/10/30 07:40:15;;;;;;;17.07;1.83;;;12.30;99.90;;;;;;4982854;28;20038;-96
2022/10/30 07:42:44;;;;;;;17.20;2.42;;;12.30;99.90;;;;;;4977203;28;20539;-94
2022/10/30 07:45:21;;;;;;;17.30;2.47;;;12.30;99.90;;;;;;4960538;28;20027;-95
2022/10/30 07:47:47;;;;;;;21.17;2.58;;;12.30;99.90;;;;;;4956209;28;20034;-93
2022/10/30 07:50:37;;;;;;;27.20;3.58;;;12.30;99.90;;;;;;4988554;28;20035;-94
2022/10/30 07:53:18;;;;;;;18.05;3.08;;;12.30;99.90;;;;;;4973107;28;20038;-92
2022/10/30 07:55:51;;;;;;;15.38;2.47;;;12.30;99.90;;;;;;4971011;28;20337;-93
2022/10/30 07:58:42;;;;;;;22.75;3.03;;;12.30;99.90;;;;;;4974806;28;20060;-95
2022/10/30 08:01:07;;;;;;;15.40;2.53;;;12.40;99.90;;;;;;4966768;28;20027;-94
2022/10/30 08:03:57;;;;;;;22.15;3.45;;;12.40;99.90;;;;;;4966445;28;20033;-92
2022/10/30 08:06:25;;;;;;;17.20;3.50;;;12.40;99.90;;;;;;4980677;28;20026;-96
2022/10/30 08:09:02;;;;;;;19.17;2.55;;;12.40;99.90;;;;;;4974977;28;20022;-94
2022/10/30 08:11:47;;;;;;;20.20;2.35;;;12.40;99.90;;;;;;4976767;28;20022;-94
2022/10/30 08:14:58;;;;;;;30.35;4.65;;;12.40;99.90;;;;;;4988178;28;20486;-95
2022/10/30 08:17:40;;;;;;;23.90;2.80;;;12.40;99.90;;;;;;4977779;28;20047;-95
2022/10/30 08:20:33;;;;;;;16.70;2.63;;;12.40;99.90;;;;;;4978633;28;20037;-94
2022/10/30 08:22:59;;;;;;;23.92;3.55;;;12.40;99.90;;;;;;4993742;28;20042;-95
2022/10/30 08:25:31;;;;;;;14.57;2.72;;;12.40;99.90;;;;;;4964141;28;20064;-95
2022/10/30 08:28:10;;;;;;;21.33;2.50;;;12.50;99.90;;;;;;4983894;28;20030;-94
2022/10/30 08:31:01;;;;;;;22.13;2.90;;;12.50;99.90;;;;;;5000882;28;20042;-95
2022/10/30 08:33:33;;;;;;;22.07;2.67;;;12.50;99.90;;;;;;5004307;28;20030;-95
2022/10/30 08:36:06;;;;;;;16.85;2.35;;;12.40;99.90;;;;;;4988520;28;20269;-95
2022/10/30 08:38:32;;;;;;;23.75;4.07;;;12.50;99.90;;;;;;4993406;28;20039;-94
2022/10/30 08:41:11;;;;;;;16.05;3.15;;;12.50;99.90;;;;;;4984746;28;20076;-95
2022/10/30 08:44:42;;;;;;;22.17;3.38;;;12.50;99.90;;;;;;4985975;28;20050;-94
2022/10/30 08:47:15;;;;;;;24.00;2.45;;;12.50;99.90;;;;;;5000136;28;20065;-95
2022/10/30 08:49:40;;;;;;;23.17;3.70;;;12.50;99.90;;;;;;4991899;28;20050;-94
2022/10/30 08:52:09;;;;;;;23.48;2.65;;;12.50;99.90;;;;;;5003870;28;20038;-96
2022/10/30 08:54:35;;;;;;;14.10;3.10;;;12.60;99.90;;;;;;4980871;28;20049;-95
2022/10/30 08:57:04;;;;;;;23.42;2.55;;;12.60;99.90;;;;;;4979190;28;20093;-95
2022/10/30 08:59:31;;;;;;;21.33;2.75;;;12.60;99.90;;;;;;4978385;28;20476;-96
2022/10/30 09:01:59;;;;;;;15.18;2.78;;;12.60;99.90;;;;;;4983803;28;20022;-95
2022/10/30 09:04:25;;;;;;;17.27;2.67;;;12.70;99.90;;;;;;4983684;28;20030;-95
2022/10/30 09:07:11;;;;;;;21.17;3.38;;;12.70;99.90;;;;;;4980172;28;20061;-94
2022/10/30 09:09:43;;;;;;;31.67;3.70;;;12.70;99.90;;;;;;4950338;28;20027;-95
2022/10/30 09:12:10;;;;;;;20.38;2.50;;;12.70;99.90;;;;;;4970285;28;20027;-95
2022/10/30 09:14:39;;;;;;;20.13;2.88;;;12.70;99.90;;;;;;4986612;28;20481;-96
2022/10/30 09:17:18;;;;;;;21.75;3.60;;;12.70;99.90;;;;;;4976312;28;20065;-95
2022/10/30 09:20:28;;;;;;;;;;;;;;;;;;;;;
2022/10/30 09:23:52;;;;;;;23.33;4.10;;;12.80;99.90;;;;;;4933065;29;20111;-95
2022/10/30 09:27:08;;;;;;;17.77;3.17;;;12.80;99.90;;;;;;4914024;29;20032;-95
2022/10/30 09:30:16;;;;;;;22.55;3.28;;;12.80;99.90;;;;;;4945795;29;20466;-95
2022/10/30 09:33:09;;;;;;;16.88;3.05;;;12.90;99.90;;;;;;4928665;29;20016;-95
2022/10/30 09:39:22;;;;;;;24.23;2.90;;;12.90;99.90;;;;;;4898260;29;20051;-96
2022/10/30 09:42:36;;;;;;;27.60;3.38;;;12.90;99.90;;;;;;4897314;29;20037;-96
2022/10/30 09:45:40;;;;;;;20.45;2.85;;;12.90;99.90;;;;;;4898175;29;20017;-96
2022/10/30 09:52:04;;;;;;;20.13;2.53;;;13.00;99.90;;;;;;4999559;23;20054;-96
2022/10/30 09:55:16;;;;;;;25.58;3.88;;;13.10;99.90;;;;;;4907602;29;20020;-95
2022/10/30 09:58:45;;;;;;;15.75;2.20;;;13.10;99.90;;;;;;4855615;29;20034;-96
2022/10/30 10:01:43;;;;;;;12.65;3.42;;;13.20;99.90;;;;;;4851411;29;20037;-96
2022/10/30 10:05:05;;;;;;;23.02;2.70;;;13.20;99.90;;;;;;4865536;29;20048;-96
2022/10/30 10:07:41;;;;;;;22.52;2.38;;;13.30;99.90;;;;;;4839045;29;20093;-96
2022/10/30 10:10:20;;;;;;;13.75;2.70;;;13.30;99.90;;;;;;4840771;29;20124;-94
2022/10/30 10:13:02;;;;;;;20.90;3.50;;;13.30;99.90;;;;;;4830163;29;20038;-95
2022/10/30 10:16:04;;;;;;;16.63;2.88;;;13.30;99.90;;;;;;4847764;29;20034;-95
2022/10/30 10:18:40;;;;;;;17.27;2.35;;;13.40;99.90;;;;;;4862867;29;20074;-95
2022/10/30 10:21:39;;;;;;;16.00;2.60;;;13.40;99.90;;;;;;4862024;29;20053;-96
2022/10/30 10:24:22;;;;;;;21.40;2.80;;;13.40;99.90;;;;;;4843229;29;20049;-96
2022/10/30 10:30:19;;;;;;;18.73;2.90;;;13.40;99.90;;;;;;4867515;29;20053;-94
2022/10/30 10:33:07;;;;;;;20.98;3.13;;;13.50;99.90;;;;;;4880376;29;20034;-94
2022/10/30 10:36:06;;;;;;;22.00;2.90;;;13.50;99.90;;;;;;4934788;29;20060;-96
2022/10/30 10:54:53;;;;;;;12.40;1.95;;;13.60;99.90;;;;;;4956379;28;20150;-96
2022/10/30 10:58:03;;;;;;;17.48;2.90;;;13.60;99.90;;;;;;4947042;29;20472;-96
2022/10/30 11:07:50;;;;;;;15.65;2.55;;;13.60;99.90;;;;;;4934793;23;20086;-96
2022/10/30 11:10:22;;;;;;;16.88;2.78;;;13.70;99.90;;;;;;5002467;28;20029;-95
2022/10/30 11:13:15;;;;;;;24.88;3.00;;;13.70;99.90;;;;;;5015326;28;20038;-96
2022/10/30 11:16:13;;;;;;;25.35;2.75;;;13.70;99.90;;;;;;4999397;28;20369;-95
2022/10/30 11:18:47;;;;;;;23.20;3.00;;;13.70;99.90;;;;;;5013687;28;20049;-95
2022/10/30 11:21:20;;;;;;;23.05;2.65;;;13.70;99.90;;;;;;5016949;28;20037;-94
2022/10/30 11:23:54;;;;;;;24.08;2.50;;;13.70;99.90;;;;;;5000791;28;20038;-96
2022/10/30 11:26:33;;;;;;;13.20;2.42;;;13.70;99.90;;;;;;5013022;28;20065;-96
2022/10/30 11:29:24;;;;;;;20.05;2.95;;;13.80;99.90;;;;;;5012378;28;20032;-94
2022/10/30 11:32:26;;;;;;;11.82;2.42;;;13.80;99.90;;;;;;5010046;28;20073;-94
2022/10/30 11:35:18;;;;;;;20.45;2.80;;;13.90;99.90;;;;;;5005055;28;20036;-94
2022/10/30 11:38:11;;;;;;;20.45;2.92;;;14.00;99.90;;;;;;5002498;28;20088;-94
2022/10/30 11:40:47;;;;;;;16.77;1.88;;;14.10;99.90;;;;;;5010240;28;20153;-94
2022/10/30 11:43:26;;;;;;;10.48;2.35;;;14.20;99.90;;;;;;4994038;28;20018;-95
2022/10/30 11:45:52;;;;;;;20.75;2.45;;;14.20;99.90;;;;;;4987025;28;20030;-92
2022/10/30 11:48:29;;;;;;;12.65;2.05;;;14.20;99.90;;;;;;4992469;28;20029;-96
2022/10/30 11:53:52;;;;;;;21.67;2.97;;;14.20;99.90;;;;;;5237691;23;20055;-94
2022/10/30 11:56:23;;;;;;;18.63;2.10;;;14.20;99.90;;;;;;4930510;29;20095;-92
2022/10/30 11:58:55;;;;;;;;;;;14.20;99.90;;;;;;4940365;29;20083;-93
2022/10/30 12:01:25;;;;;;;22.27;3.35;;;14.20;99.90;;;;;;4939859;29;20013;-94
2022/10/30 12:03:53;;;;;;;20.70;2.30;;;14.20;99.90;;;;;;4949455;28;20163;-93
2022/10/30 12:06:22;;;;;;;13.48;2.08;;;14.20;99.90;;;;;;4939469;29;20027;-93
2022/10/30 12:09:26;;;;;;;16.25;2.10;;;14.20;99.90;;;;;;4952754;28;20032;-94
2022/10/30 12:11:53;;;;;;;14.07;2.00;;;14.20;99.90;;;;;;4881722;29;20542;-95
2022/10/30 12:14:23;;;;;;;21.77;3.15;;;14.20;99.90;;;;;;4865866;29;20132;-94
2022/10/30 12:20:13;;;;;;;14.70;2.55;;;14.20;99.90;;;;;;4897735;29;20125;-95
2022/10/30 12:22:45;;;;;;;20.13;2.40;;;14.30;99.90;;;;;;4881743;29;20074;-93
2022/10/30 12:25:29;;;;;;;18.70;2.88;;;14.40;99.90;;;;;;4894706;29;20065;-94
2022/10/30 12:28:11;;;;;;;14.23;2.15;;;14.50;99.90;;;;;;4899671;29;20035;-93
2022/10/30 12:34:56;;;;;;;22.27;2.55;;;14.80;99.90;;;;;;4810309;29;20061;-96
2022/10/30 12:38:23;;;;;;;9.05;1.70;;;15.10;99.90;;;;;;4886218;29;20037;-93
2022/10/30 12:45:03;;;;;;;10.48;1.50;;;15.20;99.90;;;;;;4847748;29;20049;-95
2022/10/30 12:47:40;;;;;;;10.70;1.60;;;15.00;99.90;;;;;;4865052;29;20041;-96
2022/10/30 12:50:37;;;;;;;10.90;1.75;;;14.90;99.90;;;;;;4879747;29;20073;-95
2022/10/30 12:53:21;;;;;;;14.50;2.70;;;14.80;99.90;;;;;;4872289;29;20144;-95
2022/10/30 12:56:13;;;;;;;14.57;2.33;;;14.70;99.90;;;;;;4891328;29;20036;-94
2022/10/30 12:59:05;;;;;;;12.73;2.78;;;14.50;99.90;;;;;;4904186;29;20048;-94
2022/10/30 13:01:46;;;;;;;13.75;2.25;;;14.40;99.90;;;;;;4901226;29;20024;-95
2022/10/30 13:04:51;;;;;;;11.17;1.97;;;14.30;99.90;;;;;;4895538;29;20087;-93
2022/10/30 13:07:44;;;;;;;16.77;2.95;;;14.20;99.90;;;;;;4884482;29;20269;-94
2022/10/30 13:10:40;;;;;;;8.60;1.73;;;14.10;99.90;;;;;;4894795;28;20097;-95
2022/10/30 13:13:29;;;;;;;4.50;0.63;;;14.00;99.90;;;;;;4984616;28;20035;-95
2022/10/30 13:16:01;;;;;;;4.82;0.60;;;13.70;99.90;;;;;;4955496;28;20040;-96
2022/10/30 13:18:34;;;;;;;3.35;0.50;;;13.40;99.90;;;;;;4976411;28;20044;-94
2022/10/30 13:21:13;;;;;;;1.55;0.50;;;13.20;99.90;;;;;;4973741;28;20023;-94
2022/10/30 13:24:10;;;;;;;5.10;0.70;;;13.00;99.90;;;;;;4983020;28;20039;-96
2022/10/30 13:27:21;;;;;;;2.67;0.52;;;12.70;99.90;;;;;;4961638;28;20047;-95
2022/10/30 13:30:28;;;;;;;1.98;0.40;;;12.60;99.90;;;;;;4986367;28;20022;-96
2022/10/30 13:33:42;;;;;;;4.22;0.63;;;12.50;99.90;;;;;;4981731;28;20069;-96
2022/10/30 13:37:05;;;;;;;2.28;0.90;;;12.50;99.90;;;;;;4978293;28;20550;-95
2022/10/30 13:40:11;;;;;;;4.35;0.88;;;12.50;99.90;;;;;;4989157;28;20101;-96
2022/10/30 13:43:03;;;;;;;5.03;0.70;;;12.50;99.90;;;;;;4971603;28;20007;-96
2022/10/30 13:45:45;;;;;;;3.42;0.70;;;12.60;99.90;;;;;;4980849;28;20051;-94
2022/10/30 13:48:23;;;;;;;1.35;0.80;;;12.60;99.90;;;;;;4970412;28;20031;-96
2022/10/30 13:51:19;;;;;;;6.47;0.82;;;12.60;99.90;;;;;;4967096;28;20054;-94
2022/10/30 13:53:52;;;;;;;4.75;0.98;;;12.60;99.90;;;;;;4977794;28;20053;-94
2022/10/30 13:56:21;;;;;;;2.65;0.75;;;12.60;99.90;;;;;;4978747;28;20043;-95
2022/10/30 13:58:59;;;;;;;2.03;0.60;;;12.60;99.90;;;;;;4962600;28;20043;-96
2022/10/30 14:01:49;;;;;;;5.18;0.70;;;12.50;99.90;;;;;;4963323;28;20069;-96
2022/10/30 14:04:36;;;;;;;5.10;0.80;;;12.60;99.90;;;;;;4963858;28;20027;-95
2022/10/30 14:07:40;;;;;;;4.15;0.93;;;12.60;99.90;;;;;;4963015;28;20093;-96
2022/10/30 14:10:08;;;;;;;6.10;1.20;;;12.60;99.90;;;;;;4977915;28;20079;-96
2022/10/30 14:12:43;;;;;;;5.13;1.00;;;12.70;99.90;;;;;;4978085;28;20093;-95
2022/10/30 14:15:33;;;;;;;3.00;0.52;;;12.80;99.90;;;;;;4959888;28;20054;-95
2022/10/30 14:18:11;;;;;;;10.50;1.15;;;12.80;99.90;;;;;;4960182;28;20114;-96
2022/10/30 14:20:41;;;;;;;1.08;0.60;;;12.80;99.90;;;;;;4959722;28;20042;-92
2022/10/30 14:23:14;;;;;;;4.20;0.60;;;12.80;99.90;;;;;;4960653;28;20058;-93
2022/10/30 14:26:07;;;;;;;3.40;0.80;;;12.80;99.90;;;;;;4961602;28;20101;-96
2022/10/30 14:28:41;;;;;;;2.50;0.60;;;12.80;99.90;;;;;;4958162;28;20107;-96
2022/10/30 14:31:23;;;;;;;6.72;1.00;;;12.80;99.90;;;;;;4960425;28;20018;-93
2022/10/30 14:33:59;;;;;;;4.35;0.85;;;12.90;99.90;;;;;;4977373;28;20511;-95
2022/10/30 14:36:45;;;;;;;6.63;1.02;;;13.30;99.90;;;;;;4960477;28;20027;-96
2022/10/30 14:39:29;;;;;;;7.00;1.33;;;14.00;99.90;;;;;;4960719;28;20062;-95
2022/10/30 14:42:46;;;;;;;3.08;1.02;;;14.60;99.90;;;;;;4984282;28;20030;-96
2022/10/30 14:45:35;;;;;;;2.38;0.60;;;15.00;99.90;;;;;;4971775;28;20015;-95
2022/10/30 14:48:21;;;;;;;;;;;15.50;99.90;;;;;;4978036;28;20109;-96
2022/10/30 14:51:11;;;;;;;1.50;0.50;;;15.80;99.90;;;;;;4968540;28;19996;-95
2022/10/30 14:54:13;;;;;;;5.43;0.70;;;16.10;99.90;;;;;;4974944;28;20057;-95
2022/10/30 14:57:03;;;;;;;2.15;0.60;;;16.50;99.90;;;;;;4966703;28;20039;-96
2022/10/30 14:59:47;;;;;;;2.35;0.70;;;16.90;99.90;;;;;;4978908;28;20115;-95
2022/10/30 15:02:31;;;;;;;3.55;0.80;;;17.00;99.90;;;;;;4964069;28;20039;-95
2022/10/30 15:05:21;;;;;;;;;;;;;;;;;;;;;
2022/10/30 15:08:00;;;;;;;2.35;0.65;;;17.10;99.90;;;;;;4978283;28;20090;-95
2022/10/30 15:10:35;;;;;;;2.05;0.70;;;17.00;99.60;;;;;;4976865;28;20056;-96
2022/10/30 15:13:15;;;;;;;3.83;1.92;;;16.70;99.30;;;;;;4958847;28;20126;-95
2022/10/30 15:15:46;;;;;;;3.60;1.15;;;16.30;99.80;;;;;;4974999;28;20031;-95
2022/10/30 15:18:18;;;;;;;3.53;0.65;;;16.20;99.90;;;;;;4958651;28;20046;-95
2022/10/30 15:20:51;;;;;;;3.13;0.85;;;16.20;99.90;;;;;;4959254;28;20022;-95
2022/10/30 15:23:31;;;;;;;1.30;0.50;;;15.80;99.90;;;;;;4974762;28;20507;-94
2022/10/30 15:26:15;;;;;;;2.72;0.55;;;15.30;99.90;;;;;;4958706;28;20463;-95
2022/10/30 15:28:41;;;;;;;1.85;0.50;;;14.80;99.90;;;;;;4958495;28;20035;-94
2022/10/30 15:31:19;;;;;;;2.05;0.65;;;14.40;99.90;;;;;;4958848;28;20114;-95